sensor_id;sensor_type;location;lat;lon;timestamp;P1;durP1;ratioP1;P2;durP2;ratioP2
11957;SDS011;6039;52.576;13.348;2022-07-06T00:04:24;2.70;;;1.20;;
11957;SDS011;6039;52.576;13.348;2022-07-06T00:09:26;6.30;;;1.40;;
11957;SDS011;6039;52.576;13.348;2022-07-06T00:14:28;1.80;;;1.43;;
11957;SDS011;6039;52.576;13.348;2022-07-06T00:19:32;3.07;;;1.37;;
11957;SDS011;6039;52.576;13.348;2022-07-06T00:24:34;3.37;;;1.60;;
11957;SDS011;6039;52.576;13.348;2022-07-06T00:29:37;2.53;;;1.13;;
11957;SDS011;6039;52.576;13.348;2022-07-06T00:34:45;7.80;;;1.53;;
11957;SDS011;6039;52.576;13.348;2022-07-06T00:39:47;2.20;;;1.53;;
11957;SDS011;6039;52.576;13.348;2022-07-06T00:44:49;4.30;;;1.40;;
11957;SDS011;6039;52.576;13.348;2022-07-06T00:49:53;4.87;;;1.77;;
11957;SDS011;6039;52.576;13.348;2022-07-06T00:55:14;3.37;;;1.60;;
11957;SDS011;6039;52.576;13.348;2022-07-06T01:00:19;3.97;;;1.50;;
11957;SDS011;6039;52.576;13.348;2022-07-06T01:05:30;5.37;;;1.93;;
11957;SDS011;6039;52.576;13.348;2022-07-06T01:10:33;4.60;;;1.57;;
11957;SDS011;6039;52.576;13.348;2022-07-06T01:15:35;3.83;;;1.70;;
11957;SDS011;6039;52.576;13.348;2022-07-06T01:20:39;2.83;;;1.53;;
11957;SDS011;6039;52.576;13.348;2022-07-06T01:25:41;3.83;;;1.60;;
11957;SDS011;6039;52.576;13.348;2022-07-06T01:30:44;3.13;;;2.00;;
11957;SDS011;6039;52.576;13.348;2022-07-06T01:35:49;3.17;;;1.70;;
11957;SDS011;6039;52.576;13.348;2022-07-06T01:40:52;7.00;;;2.03;;
11957;SDS011;6039;52.576;13.348;2022-07-06T01:45:54;5.00;;;1.87;;
11957;SDS011;6039;52.576;13.348;2022-07-06T01:50:58;4.87;;;2.00;;
11957;SDS011;6039;52.576;13.348;2022-07-06T01:56:00;4.07;;;1.90;;
11957;SDS011;6039;52.576;13.348;2022-07-06T02:01:06;5.87;;;1.90;;
11957;SDS011;6039;52.576;13.348;2022-07-06T02:06:10;3.93;;;2.00;;
11957;SDS011;6039;52.576;13.348;2022-07-06T02:11:13;2.93;;;1.50;;
11957;SDS011;6039;52.576;13.348;2022-07-06T02:16:15;7.67;;;1.77;;
11957;SDS011;6039;52.576;13.348;2022-07-06T02:21:19;4.13;;;1.87;;
11957;SDS011;6039;52.576;13.348;2022-07-06T02:26:21;3.13;;;1.90;;
11957;SDS011;6039;52.576;13.348;2022-07-06T02:31:24;3.23;;;2.23;;
11957;SDS011;6039;52.576;13.348;2022-07-06T02:36:27;5.17;;;1.90;;
11957;SDS011;6039;52.576;13.348;2022-07-06T02:41:30;3.47;;;1.80;;
11957;SDS011;6039;52.576;13.348;2022-07-06T02:46:32;3.60;;;1.97;;
11957;SDS011;6039;52.576;13.348;2022-07-06T02:51:36;6.30;;;2.20;;
11957;SDS011;6039;52.576;13.348;2022-07-06T02:56:39;5.80;;;2.00;;
11957;SDS011;6039;52.576;13.348;2022-07-06T03:01:41;3.83;;;2.30;;
11957;SDS011;6039;52.576;13.348;2022-07-06T03:06:45;8.00;;;2.40;;
11957;SDS011;6039;52.576;13.348;2022-07-06T03:11:47;5.03;;;2.60;;
11957;SDS011;6039;52.576;13.348;2022-07-06T03:16:49;3.53;;;2.00;;
11957;SDS011;6039;52.576;13.348;2022-07-06T03:21:53;6.30;;;2.17;;
11957;SDS011;6039;52.576;13.348;2022-07-06T03:26:56;5.47;;;2.40;;
11957;SDS011;6039;52.576;13.348;2022-07-06T03:31:58;4.37;;;2.30;;
11957;SDS011;6039;52.576;13.348;2022-07-06T03:37:02;5.13;;;2.20;;
11957;SDS011;6039;52.576;13.348;2022-07-06T03:42:06;9.93;;;2.27;;
11957;SDS011;6039;52.576;13.348;2022-07-06T03:47:08;3.77;;;2.17;;
11957;SDS011;6039;52.576;13.348;2022-07-06T03:52:12;2.60;;;1.90;;
11957;SDS011;6039;52.576;13.348;2022-07-06T03:57:14;4.93;;;2.13;;
11957;SDS011;6039;52.576;13.348;2022-07-06T04:02:16;6.03;;;2.50;;
11957;SDS011;6039;52.576;13.348;2022-07-06T04:07:20;2.60;;;1.97;;
11957;SDS011;6039;52.576;13.348;2022-07-06T04:12:23;4.10;;;2.73;;
11957;SDS011;6039;52.576;13.348;2022-07-06T04:17:25;5.33;;;1.87;;
11957;SDS011;6039;52.576;13.348;2022-07-06T04:22:48;7.57;;;2.30;;
11957;SDS011;6039;52.576;13.348;2022-07-06T04:27:51;7.17;;;2.03;;
11957;SDS011;6039;52.576;13.348;2022-07-06T04:32:54;4.47;;;1.97;;
11957;SDS011;6039;52.576;13.348;2022-07-06T04:37:57;6.33;;;2.13;;
11957;SDS011;6039;52.576;13.348;2022-07-06T04:43:00;5.60;;;2.20;;
11957;SDS011;6039;52.576;13.348;2022-07-06T04:48:03;3.40;;;1.83;;
11957;SDS011;6039;52.576;13.348;2022-07-06T04:53:09;5.97;;;2.20;;
11957;SDS011;6039;52.576;13.348;2022-07-06T04:58:12;6.07;;;1.90;;
11957;SDS011;6039;52.576;13.348;2022-07-06T05:03:14;4.63;;;2.10;;
11957;SDS011;6039;52.576;13.348;2022-07-06T05:08:18;4.00;;;1.87;;
11957;SDS011;6039;52.576;13.348;2022-07-06T05:13:20;6.93;;;3.00;;
11957;SDS011;6039;52.576;13.348;2022-07-06T05:18:23;17.93;;;3.67;;
11957;SDS011;6039;52.576;13.348;2022-07-06T05:23:26;18.30;;;4.40;;
11957;SDS011;6039;52.576;13.348;2022-07-06T05:28:29;4.10;;;1.80;;
11957;SDS011;6039;52.576;13.348;2022-07-06T05:33:31;11.03;;;3.33;;
11957;SDS011;6039;52.576;13.348;2022-07-06T05:38:35;3.83;;;1.90;;
11957;SDS011;6039;52.576;13.348;2022-07-06T05:43:37;9.30;;;2.37;;
11957;SDS011;6039;52.576;13.348;2022-07-06T05:48:40;6.30;;;2.07;;
11957;SDS011;6039;52.576;13.348;2022-07-06T05:54:01;9.07;;;2.03;;
11957;SDS011;6039;52.576;13.348;2022-07-06T05:59:04;7.33;;;2.20;;
11957;SDS011;6039;52.576;13.348;2022-07-06T06:04:06;7.73;;;2.10;;
11957;SDS011;6039;52.576;13.348;2022-07-06T06:09:10;6.07;;;2.10;;
11957;SDS011;6039;52.576;13.348;2022-07-06T06:14:14;11.57;;;2.53;;
11957;SDS011;6039;52.576;13.348;2022-07-06T06:19:16;4.70;;;2.00;;
11957;SDS011;6039;52.576;13.348;2022-07-06T06:24:20;7.93;;;2.33;;
11957;SDS011;6039;52.576;13.348;2022-07-06T06:29:24;4.97;;;2.33;;
11957;SDS011;6039;52.576;13.348;2022-07-06T06:34:26;5.57;;;2.10;;
11957;SDS011;6039;52.576;13.348;2022-07-06T06:39:30;7.27;;;2.40;;
11957;SDS011;6039;52.576;13.348;2022-07-06T06:44:33;9.00;;;2.63;;
11957;SDS011;6039;52.576;13.348;2022-07-06T06:49:35;6.60;;;2.63;;
11957;SDS011;6039;52.576;13.348;2022-07-06T06:54:39;6.63;;;2.00;;
11957;SDS011;6039;52.576;13.348;2022-07-06T06:59:41;5.97;;;1.90;;
11957;SDS011;6039;52.576;13.348;2022-07-06T07:04:44;6.57;;;2.10;;
11957;SDS011;6039;52.576;13.348;2022-07-06T07:09:48;5.53;;;1.73;;
11957;SDS011;6039;52.576;13.348;2022-07-06T07:14:50;5.37;;;1.80;;
11957;SDS011;6039;52.576;13.348;2022-07-06T07:19:53;2.57;;;1.40;;
11957;SDS011;6039;52.576;13.348;2022-07-06T07:24:58;3.80;;;1.50;;
11957;SDS011;6039;52.576;13.348;2022-07-06T07:30:00;8.47;;;2.00;;
11957;SDS011;6039;52.576;13.348;2022-07-06T07:35:04;2.83;;;1.50;;
11957;SDS011;6039;52.576;13.348;2022-07-06T07:40:08;11.07;;;2.60;;
11957;SDS011;6039;52.576;13.348;2022-07-06T07:45:11;3.10;;;1.47;;
11957;SDS011;6039;52.576;13.348;2022-07-06T07:50:14;4.60;;;1.50;;
11957;SDS011;6039;52.576;13.348;2022-07-06T07:55:19;4.67;;;1.77;;
11957;SDS011;6039;52.576;13.348;2022-07-06T08:00:22;3.53;;;1.60;;
11957;SDS011;6039;52.576;13.348;2022-07-06T08:05:25;3.43;;;1.93;;
11957;SDS011;6039;52.576;13.348;2022-07-06T08:10:29;7.30;;;1.40;;
11957;SDS011;6039;52.576;13.348;2022-07-06T08:15:32;4.77;;;1.40;;
11957;SDS011;6039;52.576;13.348;2022-07-06T08:20:34;7.80;;;1.80;;
11957;SDS011;6039;52.576;13.348;2022-07-06T08:25:38;6.00;;;1.57;;
11957;SDS011;6039;52.576;13.348;2022-07-06T08:30:41;5.47;;;1.50;;
11957;SDS011;6039;52.576;13.348;2022-07-06T08:35:43;6.80;;;2.20;;
11957;SDS011;6039;52.576;13.348;2022-07-06T08:40:48;3.73;;;1.77;;
11957;SDS011;6039;52.576;13.348;2022-07-06T08:45:53;13.30;;;2.40;;
11957;SDS011;6039;52.576;13.348;2022-07-06T08:50:55;7.47;;;1.53;;
11957;SDS011;6039;52.576;13.348;2022-07-06T08:56:00;4.93;;;1.40;;
11957;SDS011;6039;52.576;13.348;2022-07-06T09:01:02;3.27;;;1.20;;
11957;SDS011;6039;52.576;13.348;2022-07-06T09:06:05;3.40;;;1.60;;
11957;SDS011;6039;52.576;13.348;2022-07-06T09:11:10;2.67;;;1.50;;
11957;SDS011;6039;52.576;13.348;2022-07-06T09:16:14;3.97;;;1.03;;
11957;SDS011;6039;52.576;13.348;2022-07-06T09:21:21;5.90;;;1.40;;
11957;SDS011;6039;52.576;13.348;2022-07-06T09:26:26;4.93;;;1.33;;
11957;SDS011;6039;52.576;13.348;2022-07-06T09:31:29;5.27;;;1.40;;
11957;SDS011;6039;52.576;13.348;2022-07-06T09:36:36;2.63;;;1.20;;
11957;SDS011;6039;52.576;13.348;2022-07-06T09:41:41;2.87;;;1.20;;
11957;SDS011;6039;52.576;13.348;2022-07-06T09:46:45;4.87;;;1.20;;
11957;SDS011;6039;52.576;13.348;2022-07-06T09:51:49;1.87;;;0.97;;
11957;SDS011;6039;52.576;13.348;2022-07-06T09:56:55;4.90;;;1.20;;
11957;SDS011;6039;52.576;13.348;2022-07-06T10:01:58;4.83;;;1.17;;
11957;SDS011;6039;52.576;13.348;2022-07-06T10:07:01;8.63;;;1.33;;
11957;SDS011;6039;52.576;13.348;2022-07-06T10:12:06;6.30;;;1.50;;
11957;SDS011;6039;52.576;13.348;2022-07-06T10:17:11;7.40;;;1.97;;
11957;SDS011;6039;52.576;13.348;2022-07-06T10:22:14;4.07;;;1.27;;
11957;SDS011;6039;52.576;13.348;2022-07-06T10:27:19;5.20;;;1.60;;
11957;SDS011;6039;52.576;13.348;2022-07-06T10:32:22;2.43;;;1.00;;
11957;SDS011;6039;52.576;13.348;2022-07-06T10:37:25;3.13;;;1.40;;
11957;SDS011;6039;52.576;13.348;2022-07-06T10:42:43;4.93;;;1.20;;
11957;SDS011;6039;52.576;13.348;2022-07-06T10:53:25;6.50;;;1.17;;
11957;SDS011;6039;52.576;13.348;2022-07-06T10:58:39;1.70;;;1.10;;
11957;SDS011;6039;52.576;13.348;2022-07-06T11:03:43;4.70;;;1.37;;
11957;SDS011;6039;52.576;13.348;2022-07-06T11:08:50;4.60;;;1.47;;
11957;SDS011;6039;52.576;13.348;2022-07-06T11:13:59;1.43;;;0.80;;
11957;SDS011;6039;52.576;13.348;2022-07-06T11:19:07;5.90;;;1.20;;
11957;SDS011;6039;52.576;13.348;2022-07-06T11:24:11;2.93;;;1.10;;
11957;SDS011;6039;52.576;13.348;2022-07-06T11:29:16;2.97;;;1.20;;
11957;SDS011;6039;52.576;13.348;2022-07-06T11:34:21;2.80;;;1.10;;
11957;SDS011;6039;52.576;13.348;2022-07-06T11:39:26;3.13;;;1.20;;
11957;SDS011;6039;52.576;13.348;2022-07-06T11:44:30;4.27;;;1.03;;
11957;SDS011;6039;52.576;13.348;2022-07-06T11:49:33;2.87;;;1.20;;
11957;SDS011;6039;52.576;13.348;2022-07-06T11:54:37;2.10;;;0.90;;
11957;SDS011;6039;52.576;13.348;2022-07-06T11:59:41;2.50;;;0.97;;
11957;SDS011;6039;52.576;13.348;2022-07-06T12:04:46;4.73;;;1.50;;
11957;SDS011;6039;52.576;13.348;2022-07-06T12:09:50;2.17;;;0.90;;
11957;SDS011;6039;52.576;13.348;2022-07-06T12:14:54;1.63;;;0.83;;
11957;SDS011;6039;52.576;13.348;2022-07-06T12:19:56;2.80;;;1.20;;
11957;SDS011;6039;52.576;13.348;2022-07-06T12:24:58;2.90;;;1.10;;
11957;SDS011;6039;52.576;13.348;2022-07-06T12:30:09;3.50;;;1.17;;
11957;SDS011;6039;52.576;13.348;2022-07-06T12:35:12;2.40;;;0.90;;
11957;SDS011;6039;52.576;13.348;2022-07-06T12:40:15;2.60;;;1.10;;
11957;SDS011;6039;52.576;13.348;2022-07-06T12:45:19;3.30;;;0.70;;
11957;SDS011;6039;52.576;13.348;2022-07-06T12:50:30;1.87;;;1.00;;
11957;SDS011;6039;52.576;13.348;2022-07-06T12:55:34;1.77;;;0.80;;
11957;SDS011;6039;52.576;13.348;2022-07-06T13:00:44;2.30;;;1.13;;
11957;SDS011;6039;52.576;13.348;2022-07-06T13:05:49;2.40;;;1.00;;
11957;SDS011;6039;52.576;13.348;2022-07-06T13:10:52;2.13;;;0.90;;
11957;SDS011;6039;52.576;13.348;2022-07-06T13:15:55;3.77;;;0.97;;
11957;SDS011;6039;52.576;13.348;2022-07-06T13:20:58;4.10;;;1.20;;
11957;SDS011;6039;52.576;13.348;2022-07-06T13:26:00;2.87;;;1.10;;
11957;SDS011;6039;52.576;13.348;2022-07-06T13:31:04;2.73;;;1.60;;
11957;SDS011;6039;52.576;13.348;2022-07-06T13:36:06;3.27;;;1.10;;
11957;SDS011;6039;52.576;13.348;2022-07-06T13:41:09;4.20;;;1.20;;
11957;SDS011;6039;52.576;13.348;2022-07-06T13:46:13;5.73;;;1.00;;
11957;SDS011;6039;52.576;13.348;2022-07-06T13:51:16;3.57;;;0.80;;
11957;SDS011;6039;52.576;13.348;2022-07-06T13:56:19;1.30;;;0.83;;
11957;SDS011;6039;52.576;13.348;2022-07-06T14:01:25;2.00;;;0.90;;
11957;SDS011;6039;52.576;13.348;2022-07-06T14:06:27;5.33;;;1.30;;
11957;SDS011;6039;52.576;13.348;2022-07-06T14:11:29;2.63;;;0.90;;
11957;SDS011;6039;52.576;13.348;2022-07-06T14:16:33;3.03;;;1.03;;
11957;SDS011;6039;52.576;13.348;2022-07-06T14:21:36;1.43;;;0.80;;
11957;SDS011;6039;52.576;13.348;2022-07-06T14:26:38;2.73;;;1.13;;
11957;SDS011;6039;52.576;13.348;2022-07-06T14:31:42;5.93;;;1.57;;
11957;SDS011;6039;52.576;13.348;2022-07-06T14:36:45;3.23;;;1.17;;
11957;SDS011;6039;52.576;13.348;2022-07-06T14:41:47;1.40;;;0.83;;
11957;SDS011;6039;52.576;13.348;2022-07-06T14:46:51;2.63;;;1.20;;
11957;SDS011;6039;52.576;13.348;2022-07-06T14:51:54;3.80;;;1.00;;
11957;SDS011;6039;52.576;13.348;2022-07-06T14:56:57;2.63;;;1.10;;
11957;SDS011;6039;52.576;13.348;2022-07-06T15:02:01;3.23;;;0.97;;
11957;SDS011;6039;52.576;13.348;2022-07-06T15:07:04;2.83;;;0.90;;
11957;SDS011;6039;52.576;13.348;2022-07-06T15:12:07;3.27;;;1.10;;
11957;SDS011;6039;52.576;13.348;2022-07-06T15:17:11;3.03;;;1.20;;
11957;SDS011;6039;52.576;13.348;2022-07-06T15:22:14;5.73;;;1.30;;
11957;SDS011;6039;52.576;13.348;2022-07-06T15:27:16;2.17;;;0.87;;
11957;SDS011;6039;52.576;13.348;2022-07-06T15:32:20;1.67;;;1.10;;
11957;SDS011;6039;52.576;13.348;2022-07-06T15:37:22;1.23;;;0.80;;
11957;SDS011;6039;52.576;13.348;2022-07-06T15:42:25;1.97;;;0.93;;
11957;SDS011;6039;52.576;13.348;2022-07-06T15:47:29;1.13;;;0.90;;
11957;SDS011;6039;52.576;13.348;2022-07-06T15:52:31;6.70;;;1.40;;
11957;SDS011;6039;52.576;13.348;2022-07-06T15:57:34;6.37;;;1.10;;
11957;SDS011;6039;52.576;13.348;2022-07-06T16:02:37;4.40;;;1.20;;
11957;SDS011;6039;52.576;13.348;2022-07-06T16:07:40;1.97;;;1.07;;
11957;SDS011;6039;52.576;13.348;2022-07-06T16:12:42;3.70;;;1.50;;
11957;SDS011;6039;52.576;13.348;2022-07-06T16:17:46;2.47;;;0.93;;
11957;SDS011;6039;52.576;13.348;2022-07-06T16:22:49;5.03;;;1.33;;
11957;SDS011;6039;52.576;13.348;2022-07-06T16:27:53;2.13;;;0.80;;
11957;SDS011;6039;52.576;13.348;2022-07-06T16:32:59;2.63;;;0.90;;
11957;SDS011;6039;52.576;13.348;2022-07-06T16:38:01;2.13;;;0.90;;
11957;SDS011;6039;52.576;13.348;2022-07-06T16:43:03;1.07;;;0.70;;
11957;SDS011;6039;52.576;13.348;2022-07-06T16:48:08;2.43;;;0.70;;
11957;SDS011;6039;52.576;13.348;2022-07-06T16:53:10;1.50;;;0.73;;
11957;SDS011;6039;52.576;13.348;2022-07-06T16:58:13;2.27;;;1.40;;
11957;SDS011;6039;52.576;13.348;2022-07-06T17:03:17;3.47;;;1.03;;
11957;SDS011;6039;52.576;13.348;2022-07-06T17:08:19;1.90;;;0.80;;
11957;SDS011;6039;52.576;13.348;2022-07-06T17:13:22;1.33;;;0.80;;
11957;SDS011;6039;52.576;13.348;2022-07-06T17:18:26;2.67;;;0.80;;
11957;SDS011;6039;52.576;13.348;2022-07-06T17:23:28;1.80;;;0.97;;
11957;SDS011;6039;52.576;13.348;2022-07-06T17:28:32;1.83;;;1.03;;
11957;SDS011;6039;52.576;13.348;2022-07-06T17:33:36;1.70;;;0.80;;
11957;SDS011;6039;52.576;13.348;2022-07-06T17:38:38;1.93;;;0.87;;
11957;SDS011;6039;52.576;13.348;2022-07-06T17:43:41;1.37;;;0.80;;
11957;SDS011;6039;52.576;13.348;2022-07-06T17:48:45;3.73;;;1.00;;
11957;SDS011;6039;52.576;13.348;2022-07-06T17:53:47;2.17;;;1.13;;
11957;SDS011;6039;52.576;13.348;2022-07-06T17:58:50;3.73;;;1.40;;
11957;SDS011;6039;52.576;13.348;2022-07-06T18:03:54;3.53;;;0.90;;
11957;SDS011;6039;52.576;13.348;2022-07-06T18:08:56;2.53;;;0.90;;
11957;SDS011;6039;52.576;13.348;2022-07-06T18:13:58;2.13;;;0.87;;
11957;SDS011;6039;52.576;13.348;2022-07-06T18:19:02;3.80;;;1.10;;
11957;SDS011;6039;52.576;13.348;2022-07-06T18:24:05;3.07;;;1.20;;
11957;SDS011;6039;52.576;13.348;2022-07-06T18:29:08;4.00;;;1.00;;
11957;SDS011;6039;52.576;13.348;2022-07-06T18:34:12;1.73;;;1.20;;
11957;SDS011;6039;52.576;13.348;2022-07-06T18:39:14;3.73;;;0.90;;
11957;SDS011;6039;52.576;13.348;2022-07-06T18:44:18;2.00;;;1.00;;
11957;SDS011;6039;52.576;13.348;2022-07-06T18:49:22;3.13;;;0.80;;
11957;SDS011;6039;52.576;13.348;2022-07-06T18:54:26;2.20;;;0.93;;
11957;SDS011;6039;52.576;13.348;2022-07-06T18:59:29;9.17;;;0.90;;
11957;SDS011;6039;52.576;13.348;2022-07-06T19:04:32;1.23;;;0.83;;
11957;SDS011;6039;52.576;13.348;2022-07-06T19:09:35;2.17;;;0.93;;
11957;SDS011;6039;52.576;13.348;2022-07-06T19:14:38;3.27;;;0.90;;
11957;SDS011;6039;52.576;13.348;2022-07-06T19:19:42;2.80;;;1.10;;
11957;SDS011;6039;52.576;13.348;2022-07-06T19:24:44;2.60;;;1.17;;
11957;SDS011;6039;52.576;13.348;2022-07-06T19:29:47;2.03;;;1.00;;
11957;SDS011;6039;52.576;13.348;2022-07-06T19:34:50;2.43;;;1.10;;
11957;SDS011;6039;52.576;13.348;2022-07-06T19:39:56;2.43;;;0.90;;
11957;SDS011;6039;52.576;13.348;2022-07-06T19:44:59;4.17;;;1.30;;
11957;SDS011;6039;52.576;13.348;2022-07-06T19:50:04;3.13;;;1.30;;
11957;SDS011;6039;52.576;13.348;2022-07-06T19:55:07;5.90;;;1.20;;
11957;SDS011;6039;52.576;13.348;2022-07-06T20:00:10;2.50;;;1.00;;
11957;SDS011;6039;52.576;13.348;2022-07-06T20:05:15;5.87;;;1.17;;
11957;SDS011;6039;52.576;13.348;2022-07-06T20:10:17;4.10;;;1.43;;
11957;SDS011;6039;52.576;13.348;2022-07-06T20:15:20;4.57;;;1.60;;
11957;SDS011;6039;52.576;13.348;2022-07-06T20:20:23;4.83;;;1.90;;
11957;SDS011;6039;52.576;13.348;2022-07-06T20:25:26;3.90;;;1.37;;
11957;SDS011;6039;52.576;13.348;2022-07-06T20:30:29;4.63;;;1.50;;
11957;SDS011;6039;52.576;13.348;2022-07-06T20:35:36;6.40;;;1.70;;
11957;SDS011;6039;52.576;13.348;2022-07-06T20:40:38;3.87;;;1.67;;
11957;SDS011;6039;52.576;13.348;2022-07-06T20:45:41;4.17;;;1.63;;
11957;SDS011;6039;52.576;13.348;2022-07-06T20:50:45;3.13;;;1.60;;
11957;SDS011;6039;52.576;13.348;2022-07-06T20:55:47;3.43;;;1.70;;
11957;SDS011;6039;52.576;13.348;2022-07-06T21:00:51;2.17;;;1.50;;
11957;SDS011;6039;52.576;13.348;2022-07-06T21:05:56;7.07;;;2.03;;
11957;SDS011;6039;52.576;13.348;2022-07-06T21:10:58;2.93;;;1.50;;
11957;SDS011;6039;52.576;13.348;2022-07-06T21:16:01;3.07;;;2.00;;
11957;SDS011;6039;52.576;13.348;2022-07-06T21:21:05;4.50;;;1.60;;
11957;SDS011;6039;52.576;13.348;2022-07-06T21:26:08;4.60;;;1.73;;
11957;SDS011;6039;52.576;13.348;2022-07-06T21:31:11;3.80;;;1.70;;
11957;SDS011;6039;52.576;13.348;2022-07-06T21:36:15;5.63;;;2.00;;
11957;SDS011;6039;52.576;13.348;2022-07-06T21:41:20;2.93;;;1.90;;
11957;SDS011;6039;52.576;13.348;2022-07-06T21:46:22;4.37;;;2.07;;
11957;SDS011;6039;52.576;13.348;2022-07-06T21:51:26;3.13;;;1.90;;
11957;SDS011;6039;52.576;13.348;2022-07-06T21:56:29;7.93;;;2.00;;
11957;SDS011;6039;52.576;13.348;2022-07-06T22:01:32;5.67;;;2.00;;
11957;SDS011;6039;52.576;13.348;2022-07-06T22:06:36;3.90;;;2.20;;
11957;SDS011;6039;52.576;13.348;2022-07-06T22:11:38;2.30;;;1.70;;
11957;SDS011;6039;52.576;13.348;2022-07-06T22:16:41;11.60;;;1.93;;
11957;SDS011;6039;52.576;13.348;2022-07-06T22:21:45;4.10;;;1.73;;
11957;SDS011;6039;52.576;13.348;2022-07-06T22:26:47;6.17;;;2.10;;
11957;SDS011;6039;52.576;13.348;2022-07-06T22:31:50;3.27;;;1.70;;
11957;SDS011;6039;52.576;13.348;2022-07-06T22:36:54;8.67;;;1.80;;
11957;SDS011;6039;52.576;13.348;2022-07-06T22:41:56;2.40;;;1.57;;
11957;SDS011;6039;52.576;13.348;2022-07-06T22:46:59;4.80;;;1.80;;
11957;SDS011;6039;52.576;13.348;2022-07-06T22:52:03;3.67;;;1.57;;
11957;SDS011;6039;52.576;13.348;2022-07-06T22:57:06;2.93;;;1.53;;
11957;SDS011;6039;52.576;13.348;2022-07-06T23:02:08;3.50;;;1.60;;
11957;SDS011;6039;52.576;13.348;2022-07-06T23:07:12;4.00;;;2.10;;
11957;SDS011;6039;52.576;13.348;2022-07-06T23:12:14;5.97;;;1.80;;
11957;SDS011;6039;52.576;13.348;2022-07-06T23:17:17;6.17;;;1.37;;
11957;SDS011;6039;52.576;13.348;2022-07-06T23:22:20;2.80;;;1.30;;
11957;SDS011;6039;52.576;13.348;2022-07-06T23:27:23;2.90;;;1.10;;
11957;SDS011;6039;52.576;13.348;2022-07-06T23:32:25;1.90;;;1.40;;
11957;SDS011;6039;52.576;13.348;2022-07-06T23:37:29;4.10;;;1.27;;
11957;SDS011;6039;52.576;13.348;2022-07-06T23:42:31;5.13;;;1.50;;
11957;SDS011;6039;52.576;13.348;2022-07-06T23:47:34;5.03;;;1.20;;
11957;SDS011;6039;52.576;13.348;2022-07-06T23:52:38;2.50;;;1.20;;
11957;SDS011;6039;52.576;13.348;2022-07-06T23:57:40;2.50;;;1.47;;
